sensor_id;sensor_type;location;lat;lon;timestamp;pressure;altitude;pressure_sealevel;temperature;humidity
70544;BME280;58097;48.364;-1.224;2024-03-07T00:01:33;99976.41;;;5.51;100.00
70544;BME280;58097;48.364;-1.224;2024-03-07T00:03:58;99972.03;;;5.48;99.67
70544;BME280;58097;48.364;-1.224;2024-03-07T00:06:24;99976.03;;;5.44;99.29
70544;BME280;58097;48.364;-1.224;2024-03-07T00:08:49;99969.72;;;5.33;98.33
70544;BME280;58097;48.364;-1.224;2024-03-07T00:11:14;99974.09;;;5.24;98.42
70544;BME280;58097;48.364;-1.224;2024-03-07T00:13:40;99973.69;;;5.17;98.90
70544;BME280;58097;48.364;-1.224;2024-03-07T00:16:05;99979.44;;;5.14;98.51
70544;BME280;58097;48.364;-1.224;2024-03-07T00:18:30;99968.97;;;5.08;98.02
70544;BME280;58097;48.364;-1.224;2024-03-07T00:20:56;99963.38;;;4.98;98.79
70544;BME280;58097;48.364;-1.224;2024-03-07T00:23:21;99962.75;;;4.95;98.95
70544;BME280;58097;48.364;-1.224;2024-03-07T00:25:46;99959.78;;;4.98;100.00
70544;BME280;58097;48.364;-1.224;2024-03-07T00:28:14;99955.91;;;5.01;100.00
70544;BME280;58097;48.364;-1.224;2024-03-07T00:30:42;99960.28;;;5.03;100.00
70544;BME280;58097;48.364;-1.224;2024-03-07T00:33:10;99955.41;;;5.07;100.00
70544;BME280;58097;48.364;-1.224;2024-03-07T00:35:35;99958.50;;;5.13;100.00
70544;BME280;58097;48.364;-1.224;2024-03-07T00:38:00;99950.78;;;5.18;100.00
70544;BME280;58097;48.364;-1.224;2024-03-07T00:40:26;99950.16;;;5.26;100.00
70544;BME280;58097;48.364;-1.224;2024-03-07T00:42:51;99947.28;;;5.39;100.00
70544;BME280;58097;48.364;-1.224;2024-03-07T00:45:16;99938.03;;;5.51;100.00
70544;BME280;58097;48.364;-1.224;2024-03-07T00:47:42;99933.03;;;5.56;100.00
70544;BME280;58097;48.364;-1.224;2024-03-07T00:50:08;99934.66;;;5.58;100.00
70544;BME280;58097;48.364;-1.224;2024-03-07T00:52:34;99938.75;;;5.64;100.00
70544;BME280;58097;48.364;-1.224;2024-03-07T00:54:59;99936.72;;;5.66;100.00
70544;BME280;58097;48.364;-1.224;2024-03-07T00:57:24;99940.69;;;5.73;100.00
70544;BME280;58097;48.364;-1.224;2024-03-07T00:59:50;99931.72;;;5.71;100.00
70544;BME280;58097;48.364;-1.224;2024-03-07T01:02:15;99930.97;;;5.80;100.00
70544;BME280;58097;48.364;-1.224;2024-03-07T01:04:42;99927.84;;;5.85;100.00
70544;BME280;58097;48.364;-1.224;2024-03-07T01:07:08;99921.34;;;5.86;100.00
70544;BME280;58097;48.364;-1.224;2024-03-07T01:09:33;99922.94;;;5.88;100.00
70544;BME280;58097;48.364;-1.224;2024-03-07T01:12:01;99921.97;;;5.89;100.00
70544;BME280;58097;48.364;-1.224;2024-03-07T01:14:29;99917.13;;;5.82;100.00
70544;BME280;58097;48.364;-1.224;2024-03-07T01:16:56;99911.75;;;5.92;100.00
70544;BME280;58097;48.364;-1.224;2024-03-07T01:19:21;99909.00;;;5.92;100.00
70544;BME280;58097;48.364;-1.224;2024-03-07T01:21:48;99913.50;;;5.93;100.00
70544;BME280;58097;48.364;-1.224;2024-03-07T01:24:13;99898.78;;;5.94;100.00
70544;BME280;58097;48.364;-1.224;2024-03-07T01:26:43;99896.28;;;5.90;100.00
70544;BME280;58097;48.364;-1.224;2024-03-07T01:29:08;99898.16;;;5.90;100.00
70544;BME280;58097;48.364;-1.224;2024-03-07T01:31:34;99896.03;;;5.94;100.00
70544;BME280;58097;48.364;-1.224;2024-03-07T01:33:59;99890.81;;;5.90;100.00
70544;BME280;58097;48.364;-1.224;2024-03-07T01:36:24;99892.41;;;5.93;100.00
70544;BME280;58097;48.364;-1.224;2024-03-07T01:38:50;99886.19;;;5.91;100.00
70544;BME280;58097;48.364;-1.224;2024-03-07T01:41:16;99887.06;;;5.92;100.00
70544;BME280;58097;48.364;-1.224;2024-03-07T01:43:42;99869.88;;;5.89;100.00
70544;BME280;58097;48.364;-1.224;2024-03-07T01:46:08;99871.59;;;5.90;100.00
70544;BME280;58097;48.364;-1.224;2024-03-07T01:48:35;99866.22;;;5.89;100.00
70544;BME280;58097;48.364;-1.224;2024-03-07T01:51:02;99861.50;;;5.91;100.00
70544;BME280;58097;48.364;-1.224;2024-03-07T01:53:32;99850.66;;;5.89;100.00
70544;BME280;58097;48.364;-1.224;2024-03-07T01:55:59;99859.53;;;5.82;100.00
70544;BME280;58097;48.364;-1.224;2024-03-07T01:58:24;99854.91;;;5.82;100.00
70544;BME280;58097;48.364;-1.224;2024-03-07T02:00:50;99850.03;;;5.86;100.00
70544;BME280;58097;48.364;-1.224;2024-03-07T02:03:16;99854.88;;;5.94;100.00
70544;BME280;58097;48.364;-1.224;2024-03-07T02:05:42;99856.75;;;5.93;100.00
70544;BME280;58097;48.364;-1.224;2024-03-07T02:08:08;99852.41;;;5.90;100.00
70544;BME280;58097;48.364;-1.224;2024-03-07T02:10:33;99852.41;;;5.90;100.00
70544;BME280;58097;48.364;-1.224;2024-03-07T02:12:58;99843.41;;;5.88;100.00
70544;BME280;58097;48.364;-1.224;2024-03-07T02:15:26;99833.31;;;5.89;100.00
70544;BME280;58097;48.364;-1.224;2024-03-07T02:17:52;99835.94;;;5.90;100.00
70544;BME280;58097;48.364;-1.224;2024-03-07T02:20:17;99828.09;;;5.86;100.00
70544;BME280;58097;48.364;-1.224;2024-03-07T02:22:42;99830.69;;;5.87;100.00
70544;BME280;58097;48.364;-1.224;2024-03-07T02:25:08;99835.19;;;5.88;100.00
70544;BME280;58097;48.364;-1.224;2024-03-07T02:27:37;99828.09;;;5.86;100.00
70544;BME280;58097;48.364;-1.224;2024-03-07T02:30:04;99824.25;;;5.77;100.00
70544;BME280;58097;48.364;-1.224;2024-03-07T02:32:30;99829.38;;;5.82;100.00
70544;BME280;58097;48.364;-1.224;2024-03-07T02:34:56;99815.66;;;5.82;100.00
70544;BME280;58097;48.364;-1.224;2024-03-07T02:37:21;99813.78;;;5.82;100.00
70544;BME280;58097;48.364;-1.224;2024-03-07T02:39:46;99813.66;;;5.84;100.00
70544;BME280;58097;48.364;-1.224;2024-03-07T02:42:12;99812.66;;;5.85;100.00
70544;BME280;58097;48.364;-1.224;2024-03-07T02:44:37;99808.75;;;5.87;100.00
70544;BME280;58097;48.364;-1.224;2024-03-07T02:47:04;99804.16;;;5.88;100.00
70544;BME280;58097;48.364;-1.224;2024-03-07T02:49:30;99804.56;;;5.83;100.00
70544;BME280;58097;48.364;-1.224;2024-03-07T02:51:55;99799.47;;;5.79;100.00
70544;BME280;58097;48.364;-1.224;2024-03-07T02:54:20;99807.56;;;5.80;100.00
70544;BME280;58097;48.364;-1.224;2024-03-07T02:56:46;99796.31;;;5.83;100.00
70544;BME280;58097;48.364;-1.224;2024-03-07T02:59:11;99796.31;;;5.83;100.00
70544;BME280;58097;48.364;-1.224;2024-03-07T03:01:36;99801.31;;;5.89;100.00
70544;BME280;58097;48.364;-1.224;2024-03-07T03:04:02;99795.41;;;5.94;100.00
70544;BME280;58097;48.364;-1.224;2024-03-07T03:06:28;99793.25;;;5.98;100.00
70544;BME280;58097;48.364;-1.224;2024-03-07T03:08:53;99795.00;;;5.99;100.00
70544;BME280;58097;48.364;-1.224;2024-03-07T03:11:20;99801.50;;;5.98;100.00
70544;BME280;58097;48.364;-1.224;2024-03-07T03:13:45;99788.91;;;5.95;100.00
70544;BME280;58097;48.364;-1.224;2024-03-07T03:16:13;99793.66;;;5.93;100.00
70544;BME280;58097;48.364;-1.224;2024-03-07T03:18:38;99787.19;;;5.94;100.00
70544;BME280;58097;48.364;-1.224;2024-03-07T03:21:04;99793.66;;;5.93;100.00
70544;BME280;58097;48.364;-1.224;2024-03-07T03:23:29;99788.56;;;5.88;100.00
70544;BME280;58097;48.364;-1.224;2024-03-07T03:25:55;99791.44;;;5.87;100.00
70544;BME280;58097;48.364;-1.224;2024-03-07T03:28:21;99797.59;;;5.79;100.00
70544;BME280;58097;48.364;-1.224;2024-03-07T03:30:49;99791.56;;;5.85;100.00
70544;BME280;58097;48.364;-1.224;2024-03-07T03:33:15;99788.84;;;5.85;100.00
70544;BME280;58097;48.364;-1.224;2024-03-07T03:35:41;99786.81;;;5.87;100.00
70544;BME280;58097;48.364;-1.224;2024-03-07T03:38:07;99795.59;;;5.81;100.00
70544;BME280;58097;48.364;-1.224;2024-03-07T03:40:33;99782.88;;;5.80;100.00
70544;BME280;58097;48.364;-1.224;2024-03-07T03:42:59;99786.53;;;5.70;100.00
70544;BME280;58097;48.364;-1.224;2024-03-07T03:45:26;99778.91;;;5.73;100.00
70544;BME280;58097;48.364;-1.224;2024-03-07T03:47:51;99776.91;;;5.75;100.00
70544;BME280;58097;48.364;-1.224;2024-03-07T03:50:17;99779.91;;;5.72;100.00
70544;BME280;58097;48.364;-1.224;2024-03-07T03:52:48;99782.94;;;5.69;100.00
70544;BME280;58097;48.364;-1.224;2024-03-07T03:55:13;99769.97;;;5.71;100.00
70544;BME280;58097;48.364;-1.224;2024-03-07T03:57:40;99765.22;;;5.73;100.00
70544;BME280;58097;48.364;-1.224;2024-03-07T04:00:07;99763.00;;;5.67;100.00
70544;BME280;58097;48.364;-1.224;2024-03-07T04:02:38;99761.69;;;5.62;100.00
70544;BME280;58097;48.364;-1.224;2024-03-07T04:05:04;99757.34;;;5.59;100.00
70544;BME280;58097;48.364;-1.224;2024-03-07T04:07:29;99749.97;;;5.59;100.00
70544;BME280;58097;48.364;-1.224;2024-03-07T04:09:56;99752.31;;;5.64;100.00
70544;BME280;58097;48.364;-1.224;2024-03-07T04:12:23;99749.97;;;5.59;100.00
70544;BME280;58097;48.364;-1.224;2024-03-07T04:14:48;99749.25;;;5.57;100.00
70544;BME280;58097;48.364;-1.224;2024-03-07T04:17:13;99744.75;;;5.56;100.00
70544;BME280;58097;48.364;-1.224;2024-03-07T04:19:42;99743.91;;;5.56;100.00
70544;BME280;58097;48.364;-1.224;2024-03-07T04:22:08;99735.34;;;5.49;100.00
70544;BME280;58097;48.364;-1.224;2024-03-07T04:24:35;99740.94;;;5.48;100.00
70544;BME280;58097;48.364;-1.224;2024-03-07T04:27:04;99733.97;;;5.44;100.00
70544;BME280;58097;48.364;-1.224;2024-03-07T04:29:31;99742.94;;;5.46;100.00
70544;BME280;58097;48.364;-1.224;2024-03-07T04:31:57;99733.97;;;5.44;100.00
70544;BME280;58097;48.364;-1.224;2024-03-07T04:34:23;99738.59;;;5.43;100.00
70544;BME280;58097;48.364;-1.224;2024-03-07T04:36:48;99733.72;;;5.47;100.00
70544;BME280;58097;48.364;-1.224;2024-03-07T04:39:13;99741.81;;;5.48;100.00
70544;BME280;58097;48.364;-1.224;2024-03-07T04:42:14;99725.03;;;5.42;100.00
70544;BME280;58097;48.364;-1.224;2024-03-07T04:44:40;99739.59;;;5.42;100.00
70544;BME280;58097;48.364;-1.224;2024-03-07T04:47:06;99732.72;;;5.48;100.00
70544;BME280;58097;48.364;-1.224;2024-03-07T04:49:32;99740.69;;;5.51;100.00
70544;BME280;58097;48.364;-1.224;2024-03-07T04:51:59;99731.38;;;5.42;100.00
70544;BME280;58097;48.364;-1.224;2024-03-07T04:54:26;99726.75;;;5.43;100.00
70544;BME280;58097;48.364;-1.224;2024-03-07T04:56:52;99731.97;;;5.46;100.00
70544;BME280;58097;48.364;-1.224;2024-03-07T04:59:19;99731.38;;;5.42;100.00
70544;BME280;58097;48.364;-1.224;2024-03-07T05:01:46;99731.25;;;5.44;100.00
70544;BME280;58097;48.364;-1.224;2024-03-07T05:04:15;99729.91;;;5.38;100.00
70544;BME280;58097;48.364;-1.224;2024-03-07T05:06:41;99727.03;;;5.40;100.00
70544;BME280;58097;48.364;-1.224;2024-03-07T05:09:08;99728.16;;;5.37;100.00
70544;BME280;58097;48.364;-1.224;2024-03-07T05:11:34;99726.91;;;5.41;100.00
70544;BME280;58097;48.364;-1.224;2024-03-07T05:14:00;99729.44;;;5.33;100.00
70544;BME280;58097;48.364;-1.224;2024-03-07T05:16:27;99726.16;;;5.39;100.00
70544;BME280;58097;48.364;-1.224;2024-03-07T05:18:52;99723.09;;;5.33;100.00
70544;BME280;58097;48.364;-1.224;2024-03-07T05:21:18;99719.75;;;5.29;100.00
70544;BME280;58097;48.364;-1.224;2024-03-07T05:24:09;99714.69;;;5.24;100.00
70544;BME280;58097;48.364;-1.224;2024-03-07T05:26:35;99721.03;;;5.25;100.00
70544;BME280;58097;48.364;-1.224;2024-03-07T05:29:04;99719.88;;;5.27;100.00
70544;BME280;58097;48.364;-1.224;2024-03-07T05:31:32;99720.16;;;5.24;100.00
70544;BME280;58097;48.364;-1.224;2024-03-07T05:34:00;99716.41;;;5.25;100.00
70544;BME280;58097;48.364;-1.224;2024-03-07T05:36:26;99717.16;;;5.27;100.00
70544;BME280;58097;48.364;-1.224;2024-03-07T05:38:51;99709.78;;;5.28;100.00
70544;BME280;58097;48.364;-1.224;2024-03-07T05:41:17;99712.81;;;5.25;100.00
70544;BME280;58097;48.364;-1.224;2024-03-07T05:43:42;99714.88;;;5.33;100.00
70544;BME280;58097;48.364;-1.224;2024-03-07T05:46:09;99711.41;;;5.31;100.00
70544;BME280;58097;48.364;-1.224;2024-03-07T05:48:36;99713.41;;;5.28;100.00
70544;BME280;58097;48.364;-1.224;2024-03-07T05:51:02;99707.66;;;5.32;100.00
70544;BME280;58097;48.364;-1.224;2024-03-07T05:53:27;99701.56;;;5.28;100.00
70544;BME280;58097;48.364;-1.224;2024-03-07T05:55:52;99705.59;;;5.24;100.00
70544;BME280;58097;48.364;-1.224;2024-03-07T05:58:18;99702.47;;;5.17;100.00
70544;BME280;58097;48.364;-1.224;2024-03-07T06:00:46;99701.75;;;5.15;100.00
70544;BME280;58097;48.364;-1.224;2024-03-07T06:03:16;99703.00;;;5.11;100.00
70544;BME280;58097;48.364;-1.224;2024-03-07T06:05:43;99702.63;;;5.16;100.00
70544;BME280;58097;48.364;-1.224;2024-03-07T06:08:08;99700.75;;;5.16;100.00
70544;BME280;58097;48.364;-1.224;2024-03-07T06:10:34;99700.88;;;5.15;100.00
70544;BME280;58097;48.364;-1.224;2024-03-07T06:12:59;99698.00;;;5.16;100.00
70544;BME280;58097;48.364;-1.224;2024-03-07T06:15:24;99693.66;;;5.14;100.00
70544;BME280;58097;48.364;-1.224;2024-03-07T06:17:50;99690.19;;;5.12;100.00
70544;BME280;58097;48.364;-1.224;2024-03-07T06:20:15;99693.06;;;5.10;100.00
70544;BME280;58097;48.364;-1.224;2024-03-07T06:22:50;99686.13;;;5.06;100.00
70544;BME280;58097;48.364;-1.224;2024-03-07T06:25:17;99689.72;;;5.07;100.00
70544;BME280;58097;48.364;-1.224;2024-03-07T06:27:45;99685.91;;;4.98;100.00
70544;BME280;58097;48.364;-1.224;2024-03-07T06:30:15;99680.44;;;4.98;100.00
70544;BME280;58097;48.364;-1.224;2024-03-07T06:32:46;99680.91;;;5.03;100.00
70544;BME280;58097;48.364;-1.224;2024-03-07T06:35:11;99680.91;;;5.03;100.00
70544;BME280;58097;48.364;-1.224;2024-03-07T06:37:36;99677.28;;;5.03;100.00
70544;BME280;58097;48.364;-1.224;2024-03-07T06:40:02;99678.50;;;5.10;100.00
70544;BME280;58097;48.364;-1.224;2024-03-07T06:42:34;99675.56;;;5.02;100.00
70544;BME280;58097;48.364;-1.224;2024-03-07T06:45:02;99676.56;;;5.01;100.00
70544;BME280;58097;48.364;-1.224;2024-03-07T06:47:28;99671.09;;;5.01;100.00
70544;BME280;58097;48.364;-1.224;2024-03-07T06:49:53;99674.28;;;5.06;100.00
70544;BME280;58097;48.364;-1.224;2024-03-07T06:52:18;99683.16;;;4.98;100.00
70544;BME280;58097;48.364;-1.224;2024-03-07T06:54:44;99683.91;;;5.00;100.00
70544;BME280;58097;48.364;-1.224;2024-03-07T06:57:09;99676.97;;;4.96;100.00
70544;BME280;58097;48.364;-1.224;2024-03-07T06:59:35;99682.31;;;4.97;100.00
70544;BME280;58097;48.364;-1.224;2024-03-07T07:02:02;99682.16;;;4.99;100.00
70544;BME280;58097;48.364;-1.224;2024-03-07T07:04:28;99674.81;;;5.00;100.00
70544;BME280;58097;48.364;-1.224;2024-03-07T07:07:09;99677.16;;;5.04;100.00
70544;BME280;58097;48.364;-1.224;2024-03-07T07:09:37;99687.59;;;5.10;100.00
70544;BME280;58097;48.364;-1.224;2024-03-07T07:12:02;99682.09;;;5.10;100.00
70544;BME280;58097;48.364;-1.224;2024-03-07T07:14:28;99678.81;;;5.16;100.00
70544;BME280;58097;48.364;-1.224;2024-03-07T07:16:54;99671.00;;;5.12;100.00
70544;BME280;58097;48.364;-1.224;2024-03-07T07:19:21;99673.34;;;5.16;100.00
70544;BME280;58097;48.364;-1.224;2024-03-07T07:21:46;99668.97;;;5.25;100.00
70544;BME280;58097;48.364;-1.224;2024-03-07T07:24:12;99666.56;;;5.32;100.00
70544;BME280;58097;48.364;-1.224;2024-03-07T07:26:38;99664.72;;;5.42;100.00
70544;BME280;58097;48.364;-1.224;2024-03-07T07:29:04;99671.22;;;5.41;100.00
70544;BME280;58097;48.364;-1.224;2024-03-07T07:31:30;99663.47;;;5.46;100.00
70544;BME280;58097;48.364;-1.224;2024-03-07T07:33:57;99667.47;;;5.42;100.00
70544;BME280;58097;48.364;-1.224;2024-03-07T07:36:22;99667.06;;;5.46;100.00
70544;BME280;58097;48.364;-1.224;2024-03-07T07:38:48;99663.41;;;5.57;100.00
70544;BME280;58097;48.364;-1.224;2024-03-07T07:41:13;99675.41;;;5.66;100.00
70544;BME280;58097;48.364;-1.224;2024-03-07T07:43:40;99663.59;;;5.65;100.00
70544;BME280;58097;48.364;-1.224;2024-03-07T07:46:06;99659.28;;;5.72;100.00
70544;BME280;58097;48.364;-1.224;2024-03-07T07:48:31;99660.50;;;5.79;100.00
70544;BME280;58097;48.364;-1.224;2024-03-07T07:50:56;99658.94;;;5.86;100.00
70544;BME280;58097;48.364;-1.224;2024-03-07T07:53:22;99654.81;;;6.02;100.00
70544;BME280;58097;48.364;-1.224;2024-03-07T07:55:47;99657.56;;;6.02;100.00
70544;BME280;58097;48.364;-1.224;2024-03-07T07:58:14;99647.19;;;6.05;100.00
70544;BME280;58097;48.364;-1.224;2024-03-07T08:00:39;99642.63;;;6.15;100.00
70544;BME280;58097;48.364;-1.224;2024-03-07T08:03:05;99648.69;;;6.19;100.00
70544;BME280;58097;48.364;-1.224;2024-03-07T08:05:35;99638.13;;;6.14;100.00
70544;BME280;58097;48.364;-1.224;2024-03-07T08:08:05;99641.19;;;6.21;100.00
70544;BME280;58097;48.364;-1.224;2024-03-07T08:10:32;99634.97;;;6.29;100.00
70544;BME280;58097;48.364;-1.224;2024-03-07T08:12:58;99630.84;;;6.44;100.00
70544;BME280;58097;48.364;-1.224;2024-03-07T08:15:25;99632.72;;;6.43;100.00
70544;BME280;58097;48.364;-1.224;2024-03-07T08:17:51;99626.22;;;6.44;100.00
70544;BME280;58097;48.364;-1.224;2024-03-07T08:20:19;99614.38;;;6.53;100.00
70544;BME280;58097;48.364;-1.224;2024-03-07T08:22:46;99618.84;;;6.55;100.00
70544;BME280;58097;48.364;-1.224;2024-03-07T08:25:13;99608.16;;;6.51;100.00
70544;BME280;58097;48.364;-1.224;2024-03-07T08:27:42;99610.94;;;6.71;100.00
70544;BME280;58097;48.364;-1.224;2024-03-07T08:30:09;99612.06;;;6.88;100.00
70544;BME280;58097;48.364;-1.224;2024-03-07T08:32:42;99613.22;;;7.04;100.00
70544;BME280;58097;48.364;-1.224;2024-03-07T08:35:08;99603.66;;;7.18;100.00
70544;BME280;58097;48.364;-1.224;2024-03-07T08:40:07;99592.91;;;7.44;100.00
70544;BME280;58097;48.364;-1.224;2024-03-07T08:42:36;99595.94;;;7.41;100.00
70544;BME280;58097;48.364;-1.224;2024-03-07T08:45:03;99587.94;;;7.57;100.00
70544;BME280;58097;48.364;-1.224;2024-03-07T08:47:34;99587.50;;;7.62;100.00
70544;BME280;58097;48.364;-1.224;2024-03-07T08:50:00;99580.38;;;7.69;100.00
70544;BME280;58097;48.364;-1.224;2024-03-07T08:52:25;99583.38;;;7.75;100.00
70544;BME280;58097;48.364;-1.224;2024-03-07T08:54:51;99571.25;;;7.68;100.00
70544;BME280;58097;48.364;-1.224;2024-03-07T08:57:16;99571.56;;;7.93;100.00
70544;BME280;58097;48.364;-1.224;2024-03-07T08:59:43;99562.59;;;7.91;100.00
70544;BME280;58097;48.364;-1.224;2024-03-07T09:02:12;99566.06;;;8.20;100.00
70544;BME280;58097;48.364;-1.224;2024-03-07T09:04:37;99571.34;;;8.31;100.00
70544;BME280;58097;48.364;-1.224;2024-03-07T09:07:06;99568.97;;;8.19;100.00
70544;BME280;58097;48.364;-1.224;2024-03-07T09:09:33;99568.25;;;8.17;100.00
70544;BME280;58097;48.364;-1.224;2024-03-07T09:11:59;99560.78;;;8.27;100.00
70544;BME280;58097;48.364;-1.224;2024-03-07T09:14:26;99558.25;;;8.43;100.00
70544;BME280;58097;48.364;-1.224;2024-03-07T09:16:51;99555.41;;;8.35;100.00
70544;BME280;58097;48.364;-1.224;2024-03-07T09:19:17;99554.09;;;8.29;100.00
70544;BME280;58097;48.364;-1.224;2024-03-07T09:21:48;99560.31;;;8.31;100.00
70544;BME280;58097;48.364;-1.224;2024-03-07T09:24:14;99546.47;;;8.51;100.00
70544;BME280;58097;48.364;-1.224;2024-03-07T09:26:40;99552.50;;;8.54;100.00
70544;BME280;58097;48.364;-1.224;2024-03-07T09:29:05;99559.75;;;8.55;100.00
70544;BME280;58097;48.364;-1.224;2024-03-07T09:31:34;99545.97;;;8.55;100.00
70544;BME280;58097;48.364;-1.224;2024-03-07T09:33:59;99539.94;;;8.52;100.00
70544;BME280;58097;48.364;-1.224;2024-03-07T09:36:25;99537.19;;;8.69;100.00
70544;BME280;58097;48.364;-1.224;2024-03-07T09:38:51;99528.72;;;8.89;100.00
70544;BME280;58097;48.364;-1.224;2024-03-07T09:41:16;99529.59;;;9.15;100.00
70544;BME280;58097;48.364;-1.224;2024-03-07T09:43:51;99514.91;;;9.32;100.00
70544;BME280;58097;48.364;-1.224;2024-03-07T09:46:23;99508.06;;;9.45;100.00
70544;BME280;58097;48.364;-1.224;2024-03-07T09:48:49;99507.16;;;9.62;100.00
70544;BME280;58097;48.364;-1.224;2024-03-07T09:51:20;99503.91;;;9.75;100.00
70544;BME280;58097;48.364;-1.224;2024-03-07T09:53:47;99503.88;;;9.67;98.35
70544;BME280;58097;48.364;-1.224;2024-03-07T09:56:14;99501.88;;;9.43;95.37
70544;BME280;58097;48.364;-1.224;2024-03-07T09:58:42;99495.53;;;9.50;96.98
70544;BME280;58097;48.364;-1.224;2024-03-07T10:01:07;99496.19;;;9.44;96.32
70544;BME280;58097;48.364;-1.224;2024-03-07T10:03:35;99485.28;;;9.69;100.00
70544;BME280;58097;48.364;-1.224;2024-03-07T10:06:00;99489.16;;;9.84;100.00
70544;BME280;58097;48.364;-1.224;2024-03-07T10:08:26;99476.59;;;10.06;100.00
70544;BME280;58097;48.364;-1.224;2024-03-07T10:10:52;99479.53;;;10.04;97.43
70544;BME280;58097;48.364;-1.224;2024-03-07T10:13:18;99471.22;;;9.96;94.81
70544;BME280;58097;48.364;-1.224;2024-03-07T10:15:43;99472.69;;;10.16;95.18
70544;BME280;58097;48.364;-1.224;2024-03-07T10:18:08;99461.28;;;10.19;93.47
70544;BME280;58097;48.364;-1.224;2024-03-07T10:20:37;99460.13;;;10.38;94.35
70544;BME280;58097;48.364;-1.224;2024-03-07T10:23:04;99464.13;;;10.44;92.89
70544;BME280;58097;48.364;-1.224;2024-03-07T10:25:32;99459.25;;;10.38;87.43
70544;BME280;58097;48.364;-1.224;2024-03-07T10:27:58;99453.75;;;10.54;92.66
70544;BME280;58097;48.364;-1.224;2024-03-07T10:30:23;99461.69;;;10.49;89.13
70544;BME280;58097;48.364;-1.224;2024-03-07T10:32:58;99451.16;;;10.52;87.96
70544;BME280;58097;48.364;-1.224;2024-03-07T10:35:26;99450.47;;;10.50;82.97
70544;BME280;58097;48.364;-1.224;2024-03-07T10:37:53;99444.25;;;10.48;79.74
70544;BME280;58097;48.364;-1.224;2024-03-07T10:40:22;99434.59;;;10.52;79.00
70544;BME280;58097;48.364;-1.224;2024-03-07T10:42:48;99450.28;;;10.60;78.42
70544;BME280;58097;48.364;-1.224;2024-03-07T10:45:20;99433.88;;;10.67;79.19
70544;BME280;58097;48.364;-1.224;2024-03-07T10:47:53;99437.31;;;10.93;77.66
70544;BME280;58097;48.364;-1.224;2024-03-07T10:50:51;99423.66;;;10.92;74.65
70544;BME280;58097;48.364;-1.224;2024-03-07T10:53:19;99432.97;;;11.07;72.59
70544;BME280;58097;48.364;-1.224;2024-03-07T10:56:06;99433.50;;;11.02;67.24
70544;BME280;58097;48.364;-1.224;2024-03-07T10:58:51;99429.19;;;10.92;65.42
70544;BME280;58097;48.364;-1.224;2024-03-07T11:01:23;99413.81;;;11.05;68.52
70544;BME280;58097;48.364;-1.224;2024-03-07T11:03:51;99416.31;;;11.31;71.47
70544;BME280;58097;48.364;-1.224;2024-03-07T11:06:18;99424.66;;;11.15;64.73
70544;BME280;58097;48.364;-1.224;2024-03-07T11:08:44;99399.66;;;11.00;63.34
70544;BME280;58097;48.364;-1.224;2024-03-07T11:11:11;99400.50;;;10.93;63.89
70544;BME280;58097;48.364;-1.224;2024-03-07T11:13:38;99391.34;;;10.92;62.00
70544;BME280;58097;48.364;-1.224;2024-03-07T11:16:05;99400.19;;;10.79;62.37
70544;BME280;58097;48.364;-1.224;2024-03-07T11:18:31;99406.22;;;10.91;64.72
70544;BME280;58097;48.364;-1.224;2024-03-07T11:20:57;99397.53;;;11.10;63.05
70544;BME280;58097;48.364;-1.224;2024-03-07T11:26:15;99386.00;;;10.99;59.89
70544;BME280;58097;48.364;-1.224;2024-03-07T11:28:41;99385.28;;;11.05;59.79
70544;BME280;58097;48.364;-1.224;2024-03-07T11:33:38;99383.38;;;10.97;57.78
70544;BME280;58097;48.364;-1.224;2024-03-07T11:36:11;99371.69;;;10.87;58.55
70544;BME280;58097;48.364;-1.224;2024-03-07T11:38:58;99363.53;;;11.02;59.00
70544;BME280;58097;48.364;-1.224;2024-03-07T11:41:23;99366.41;;;11.16;55.03
70544;BME280;58097;48.364;-1.224;2024-03-07T11:43:48;99364.66;;;11.24;56.65
70544;BME280;58097;48.364;-1.224;2024-03-07T11:46:14;99351.31;;;11.35;56.46
70544;BME280;58097;48.364;-1.224;2024-03-07T11:48:42;99358.25;;;11.31;54.63
70544;BME280;58097;48.364;-1.224;2024-03-07T11:51:07;99356.84;;;11.27;53.89
70544;BME280;58097;48.364;-1.224;2024-03-07T11:53:38;99347.03;;;11.16;54.59
70544;BME280;58097;48.364;-1.224;2024-03-07T11:56:03;99352.22;;;11.28;53.87
70544;BME280;58097;48.364;-1.224;2024-03-07T11:58:37;99354.38;;;11.40;57.38
70544;BME280;58097;48.364;-1.224;2024-03-07T12:01:05;99356.50;;;11.30;56.88
70544;BME280;58097;48.364;-1.224;2024-03-07T12:03:31;99352.53;;;11.33;58.03
70544;BME280;58097;48.364;-1.224;2024-03-07T12:05:59;99348.41;;;11.29;54.74
70544;BME280;58097;48.364;-1.224;2024-03-07T12:08:24;99352.34;;;11.26;57.00
70544;BME280;58097;48.364;-1.224;2024-03-07T12:10:51;99330.41;;;11.25;56.72
70544;BME280;58097;48.364;-1.224;2024-03-07T12:13:21;99327.13;;;11.29;60.08
70544;BME280;58097;48.364;-1.224;2024-03-07T12:15:48;99320.31;;;11.40;59.45
70544;BME280;58097;48.364;-1.224;2024-03-07T12:18:16;99321.50;;;11.45;56.91
70544;BME280;58097;48.364;-1.224;2024-03-07T12:20:43;99311.69;;;11.66;60.75
70544;BME280;58097;48.364;-1.224;2024-03-07T12:23:15;99307.22;;;12.10;65.76
70544;BME280;58097;48.364;-1.224;2024-03-07T12:25:44;99303.75;;;12.17;60.94
70544;BME280;58097;48.364;-1.224;2024-03-07T12:28:12;99305.50;;;12.09;56.87
70544;BME280;58097;48.364;-1.224;2024-03-07T12:30:52;99298.94;;;12.10;57.14
70544;BME280;58097;48.364;-1.224;2024-03-07T12:33:20;99295.72;;;12.22;58.65
70544;BME280;58097;48.364;-1.224;2024-03-07T12:35:46;99283.97;;;12.20;59.12
70544;BME280;58097;48.364;-1.224;2024-03-07T12:38:13;99275.50;;;12.36;58.63
70544;BME280;58097;48.364;-1.224;2024-03-07T12:40:42;99268.16;;;12.43;58.64
70544;BME280;58097;48.364;-1.224;2024-03-07T12:43:17;99266.81;;;12.39;56.63
70544;BME280;58097;48.364;-1.224;2024-03-07T12:45:51;99256.63;;;12.54;57.94
70544;BME280;58097;48.364;-1.224;2024-03-07T12:48:20;99263.13;;;12.61;57.63
70544;BME280;58097;48.364;-1.224;2024-03-07T12:50:49;99252.41;;;12.58;59.02
70544;BME280;58097;48.364;-1.224;2024-03-07T12:53:21;99257.38;;;12.48;54.62
70544;BME280;58097;48.364;-1.224;2024-03-07T12:55:47;99253.63;;;12.26;53.93
70544;BME280;58097;48.364;-1.224;2024-03-07T12:58:13;99231.34;;;12.34;58.74